sensor_id;sensor_type;location;lat;lon;timestamp;temperature;humidity
3005;DHT22;1512;51.486;6.610;2023-06-19T00:02:33;23.50;99.90
3005;DHT22;1512;51.486;6.610;2023-06-19T00:06:42;23.40;99.90
3005;DHT22;1512;51.486;6.610;2023-06-19T00:10:51;23.30;99.90
3005;DHT22;1512;51.486;6.610;2023-06-19T00:15:00;23.20;99.90
3005;DHT22;1512;51.486;6.610;2023-06-19T00:19:09;23.20;99.90
3005;DHT22;1512;51.486;6.610;2023-06-19T00:23:19;23.10;99.90
3005;DHT22;1512;51.486;6.610;2023-06-19T00:27:28;23.00;99.90
3005;DHT22;1512;51.486;6.610;2023-06-19T00:31:37;23.00;99.90
3005;DHT22;1512;51.486;6.610;2023-06-19T00:35:45;22.90;99.90
3005;DHT22;1512;51.486;6.610;2023-06-19T00:39:56;22.80;99.90
3005;DHT22;1512;51.486;6.610;2023-06-19T00:44:04;22.80;99.90
3005;DHT22;1512;51.486;6.610;2023-06-19T00:48:13;22.70;99.90
3005;DHT22;1512;51.486;6.610;2023-06-19T00:52:22;22.60;99.90
3005;DHT22;1512;51.486;6.610;2023-06-19T00:56:31;22.60;99.90
3005;DHT22;1512;51.486;6.610;2023-06-19T01:00:42;22.40;99.90
3005;DHT22;1512;51.486;6.610;2023-06-19T01:04:52;22.40;99.90
3005;DHT22;1512;51.486;6.610;2023-06-19T01:09:07;22.30;99.90
3005;DHT22;1512;51.486;6.610;2023-06-19T01:17:32;22.20;99.90
3005;DHT22;1512;51.486;6.610;2023-06-19T01:21:41;22.10;99.90
3005;DHT22;1512;51.486;6.610;2023-06-19T01:25:50;22.00;99.90
3005;DHT22;1512;51.486;6.610;2023-06-19T01:30:00;21.90;99.90
3005;DHT22;1512;51.486;6.610;2023-06-19T01:34:11;21.80;99.90
3005;DHT22;1512;51.486;6.610;2023-06-19T01:38:22;21.80;99.90
3005;DHT22;1512;51.486;6.610;2023-06-19T01:42:34;21.70;99.90
3005;DHT22;1512;51.486;6.610;2023-06-19T01:46:43;21.60;99.90
3005;DHT22;1512;51.486;6.610;2023-06-19T01:50:53;21.60;99.90
3005;DHT22;1512;51.486;6.610;2023-06-19T01:55:02;21.60;99.90
3005;DHT22;1512;51.486;6.610;2023-06-19T01:59:11;21.60;99.90
3005;DHT22;1512;51.486;6.610;2023-06-19T02:03:19;21.50;99.90
3005;DHT22;1512;51.486;6.610;2023-06-19T02:07:28;21.40;99.90
3005;DHT22;1512;51.486;6.610;2023-06-19T02:11:37;21.50;99.90
3005;DHT22;1512;51.486;6.610;2023-06-19T02:15:46;21.40;99.90
3005;DHT22;1512;51.486;6.610;2023-06-19T02:19:54;21.40;99.90
3005;DHT22;1512;51.486;6.610;2023-06-19T02:24:04;21.40;99.90
3005;DHT22;1512;51.486;6.610;2023-06-19T02:28:13;21.40;99.90
3005;DHT22;1512;51.486;6.610;2023-06-19T02:32:22;21.40;99.90
3005;DHT22;1512;51.486;6.610;2023-06-19T02:36:30;21.40;99.90
3005;DHT22;1512;51.486;6.610;2023-06-19T02:40:39;21.40;99.90
3005;DHT22;1512;51.486;6.610;2023-06-19T02:44:48;21.40;99.90
3005;DHT22;1512;51.486;6.610;2023-06-19T02:48:57;21.40;99.90
3005;DHT22;1512;51.486;6.610;2023-06-19T02:53:05;21.40;99.90
3005;DHT22;1512;51.486;6.610;2023-06-19T02:57:14;21.40;99.90
3005;DHT22;1512;51.486;6.610;2023-06-19T03:01:23;21.60;99.90
3005;DHT22;1512;51.486;6.610;2023-06-19T03:05:32;21.60;99.90
3005;DHT22;1512;51.486;6.610;2023-06-19T03:09:40;21.70;99.90
3005;DHT22;1512;51.486;6.610;2023-06-19T03:13:53;21.80;99.90
3005;DHT22;1512;51.486;6.610;2023-06-19T03:18:02;21.90;99.90
3005;DHT22;1512;51.486;6.610;2023-06-19T03:22:13;21.80;99.90
3005;DHT22;1512;51.486;6.610;2023-06-19T03:26:23;21.80;99.90
3005;DHT22;1512;51.486;6.610;2023-06-19T03:30:35;21.80;99.90
3005;DHT22;1512;51.486;6.610;2023-06-19T03:34:44;21.80;99.90
3005;DHT22;1512;51.486;6.610;2023-06-19T03:38:53;21.70;99.90
3005;DHT22;1512;51.486;6.610;2023-06-19T03:43:03;21.70;99.90
3005;DHT22;1512;51.486;6.610;2023-06-19T03:47:12;21.70;99.90
3005;DHT22;1512;51.486;6.610;2023-06-19T03:51:20;21.60;99.90
3005;DHT22;1512;51.486;6.610;2023-06-19T03:55:29;21.60;99.90
3005;DHT22;1512;51.486;6.610;2023-06-19T03:59:38;21.60;99.90
3005;DHT22;1512;51.486;6.610;2023-06-19T04:03:46;21.50;99.90
3005;DHT22;1512;51.486;6.610;2023-06-19T04:07:55;21.50;99.90
3005;DHT22;1512;51.486;6.610;2023-06-19T04:12:05;21.40;99.90
3005;DHT22;1512;51.486;6.610;2023-06-19T04:16:13;21.30;99.90
3005;DHT22;1512;51.486;6.610;2023-06-19T04:20:22;21.20;99.90
3005;DHT22;1512;51.486;6.610;2023-06-19T04:24:31;21.10;99.90
3005;DHT22;1512;51.486;6.610;2023-06-19T04:28:40;21.10;99.90
3005;DHT22;1512;51.486;6.610;2023-06-19T04:32:49;21.10;99.90
3005;DHT22;1512;51.486;6.610;2023-06-19T04:37:00;21.00;99.90
3005;DHT22;1512;51.486;6.610;2023-06-19T04:41:08;21.00;99.90
3005;DHT22;1512;51.486;6.610;2023-06-19T04:45:17;20.90;99.90
3005;DHT22;1512;51.486;6.610;2023-06-19T04:49:31;21.00;99.90
3005;DHT22;1512;51.486;6.610;2023-06-19T04:53:37;21.00;99.90
3005;DHT22;1512;51.486;6.610;2023-06-19T04:57:46;20.90;99.90
3005;DHT22;1512;51.486;6.610;2023-06-19T05:01:54;20.90;99.90
3005;DHT22;1512;51.486;6.610;2023-06-19T05:06:03;20.90;99.90
3005;DHT22;1512;51.486;6.610;2023-06-19T05:10:12;20.90;99.90
3005;DHT22;1512;51.486;6.610;2023-06-19T05:14:21;21.10;99.90
3005;DHT22;1512;51.486;6.610;2023-06-19T05:18:29;21.10;99.90
3005;DHT22;1512;51.486;6.610;2023-06-19T05:22:38;21.20;99.90
3005;DHT22;1512;51.486;6.610;2023-06-19T05:26:47;21.10;99.90
3005;DHT22;1512;51.486;6.610;2023-06-19T05:30:56;21.00;99.90
3005;DHT22;1512;51.486;6.610;2023-06-19T05:35:05;21.10;99.90
3005;DHT22;1512;51.486;6.610;2023-06-19T05:39:14;21.10;99.90
3005;DHT22;1512;51.486;6.610;2023-06-19T05:43:23;21.00;99.90
3005;DHT22;1512;51.486;6.610;2023-06-19T05:47:35;21.10;99.90
3005;DHT22;1512;51.486;6.610;2023-06-19T05:51:43;21.10;99.90
3005;DHT22;1512;51.486;6.610;2023-06-19T05:55:52;21.20;99.90
3005;DHT22;1512;51.486;6.610;2023-06-19T06:00:01;21.20;99.90
3005;DHT22;1512;51.486;6.610;2023-06-19T06:04:11;21.20;99.90
3005;DHT22;1512;51.486;6.610;2023-06-19T06:08:21;21.20;99.90
3005;DHT22;1512;51.486;6.610;2023-06-19T06:12:33;21.30;99.90
3005;DHT22;1512;51.486;6.610;2023-06-19T06:16:40;21.40;99.90
3005;DHT22;1512;51.486;6.610;2023-06-19T06:20:49;21.60;99.90
3005;DHT22;1512;51.486;6.610;2023-06-19T06:24:58;21.70;99.90
3005;DHT22;1512;51.486;6.610;2023-06-19T06:29:08;21.80;99.90
3005;DHT22;1512;51.486;6.610;2023-06-19T06:33:17;21.80;99.90
3005;DHT22;1512;51.486;6.610;2023-06-19T06:37:25;21.90;99.90
3005;DHT22;1512;51.486;6.610;2023-06-19T06:41:34;21.90;99.90
3005;DHT22;1512;51.486;6.610;2023-06-19T06:45:43;21.90;99.90
3005;DHT22;1512;51.486;6.610;2023-06-19T06:49:52;22.00;99.90
3005;DHT22;1512;51.486;6.610;2023-06-19T06:54:00;22.10;99.90
3005;DHT22;1512;51.486;6.610;2023-06-19T06:58:09;22.20;99.90
3005;DHT22;1512;51.486;6.610;2023-06-19T07:02:19;22.10;99.90
3005;DHT22;1512;51.486;6.610;2023-06-19T07:06:30;22.10;99.90
3005;DHT22;1512;51.486;6.610;2023-06-19T07:10:39;22.10;99.90
3005;DHT22;1512;51.486;6.610;2023-06-19T07:14:48;22.10;99.90
3005;DHT22;1512;51.486;6.610;2023-06-19T07:18:57;22.00;99.90
3005;DHT22;1512;51.486;6.610;2023-06-19T07:23:06;21.90;99.90
3005;DHT22;1512;51.486;6.610;2023-06-19T07:27:15;22.00;99.90
3005;DHT22;1512;51.486;6.610;2023-06-19T07:31:23;22.10;99.90
3005;DHT22;1512;51.486;6.610;2023-06-19T07:35:32;22.40;99.90
3005;DHT22;1512;51.486;6.610;2023-06-19T07:39:41;22.60;99.90
3005;DHT22;1512;51.486;6.610;2023-06-19T07:43:51;22.80;99.90
3005;DHT22;1512;51.486;6.610;2023-06-19T07:48:00;22.70;99.90
3005;DHT22;1512;51.486;6.610;2023-06-19T07:52:09;22.70;99.90
3005;DHT22;1512;51.486;6.610;2023-06-19T07:56:18;22.80;99.90
3005;DHT22;1512;51.486;6.610;2023-06-19T08:00:27;23.00;99.90
3005;DHT22;1512;51.486;6.610;2023-06-19T08:04:36;23.00;99.90
3005;DHT22;1512;51.486;6.610;2023-06-19T08:08:44;23.10;99.90
3005;DHT22;1512;51.486;6.610;2023-06-19T08:12:54;23.20;99.90
3005;DHT22;1512;51.486;6.610;2023-06-19T08:17:03;23.40;99.90
3005;DHT22;1512;51.486;6.610;2023-06-19T08:21:13;23.40;99.90
3005;DHT22;1512;51.486;6.610;2023-06-19T08:25:21;23.40;99.90
3005;DHT22;1512;51.486;6.610;2023-06-19T08:29:30;23.50;99.90
3005;DHT22;1512;51.486;6.610;2023-06-19T08:33:39;23.50;99.90
3005;DHT22;1512;51.486;6.610;2023-06-19T08:37:47;23.40;99.90
3005;DHT22;1512;51.486;6.610;2023-06-19T08:41:56;23.40;99.90
3005;DHT22;1512;51.486;6.610;2023-06-19T08:46:10;23.30;99.90
3005;DHT22;1512;51.486;6.610;2023-06-19T08:50:19;23.40;99.90
3005;DHT22;1512;51.486;6.610;2023-06-19T08:54:29;23.40;99.90
3005;DHT22;1512;51.486;6.610;2023-06-19T08:58:37;23.50;99.90
3005;DHT22;1512;51.486;6.610;2023-06-19T09:02:46;23.50;99.90
3005;DHT22;1512;51.486;6.610;2023-06-19T09:07:03;23.60;99.90
3005;DHT22;1512;51.486;6.610;2023-06-19T09:11:12;24.10;99.90
3005;DHT22;1512;51.486;6.610;2023-06-19T09:15:21;24.40;99.90
3005;DHT22;1512;51.486;6.610;2023-06-19T09:19:32;24.60;99.90
3005;DHT22;1512;51.486;6.610;2023-06-19T09:23:42;24.60;99.90
3005;DHT22;1512;51.486;6.610;2023-06-19T09:27:51;24.70;99.90
3005;DHT22;1512;51.486;6.610;2023-06-19T09:32:00;24.70;99.90
3005;DHT22;1512;51.486;6.610;2023-06-19T09:36:08;24.80;99.90
3005;DHT22;1512;51.486;6.610;2023-06-19T09:40:18;25.00;99.90
3005;DHT22;1512;51.486;6.610;2023-06-19T09:44:31;25.00;99.90
3005;DHT22;1512;51.486;6.610;2023-06-19T09:48:45;25.00;99.90
3005;DHT22;1512;51.486;6.610;2023-06-19T09:52:58;24.80;99.90
3005;DHT22;1512;51.486;6.610;2023-06-19T09:57:10;24.80;99.90
3005;DHT22;1512;51.486;6.610;2023-06-19T10:01:19;24.80;99.90
3005;DHT22;1512;51.486;6.610;2023-06-19T10:05:29;25.10;99.90
3005;DHT22;1512;51.486;6.610;2023-06-19T10:09:40;25.00;99.90
3005;DHT22;1512;51.486;6.610;2023-06-19T10:13:51;25.00;99.90
3005;DHT22;1512;51.486;6.610;2023-06-19T10:18:04;25.40;99.90
3005;DHT22;1512;51.486;6.610;2023-06-19T10:22:19;25.70;99.90
3005;DHT22;1512;51.486;6.610;2023-06-19T10:26:35;25.90;99.90
3005;DHT22;1512;51.486;6.610;2023-06-19T10:30:51;26.20;99.90
3005;DHT22;1512;51.486;6.610;2023-06-19T10:34:56;26.50;99.90
3005;DHT22;1512;51.486;6.610;2023-06-19T10:39:04;26.40;99.90
3005;DHT22;1512;51.486;6.610;2023-06-19T10:43:21;26.50;99.90
3005;DHT22;1512;51.486;6.610;2023-06-19T10:47:33;26.30;99.90
3005;DHT22;1512;51.486;6.610;2023-06-19T10:51:42;26.10;99.90
3005;DHT22;1512;51.486;6.610;2023-06-19T10:55:59;26.40;99.90
3005;DHT22;1512;51.486;6.610;2023-06-19T11:00:08;26.50;99.90
3005;DHT22;1512;51.486;6.610;2023-06-19T11:04:21;26.50;99.90
3005;DHT22;1512;51.486;6.610;2023-06-19T11:08:31;26.60;99.90
3005;DHT22;1512;51.486;6.610;2023-06-19T11:12:40;26.40;99.90
3005;DHT22;1512;51.486;6.610;2023-06-19T11:16:50;26.40;99.90
3005;DHT22;1512;51.486;6.610;2023-06-19T11:21:00;26.60;99.90
3005;DHT22;1512;51.486;6.610;2023-06-19T11:25:10;26.90;99.90
3005;DHT22;1512;51.486;6.610;2023-06-19T11:29:29;26.90;99.90
3005;DHT22;1512;51.486;6.610;2023-06-19T11:33:33;27.00;99.90
3005;DHT22;1512;51.486;6.610;2023-06-19T11:37:43;27.50;99.90
3005;DHT22;1512;51.486;6.610;2023-06-19T11:41:52;27.70;99.90
3005;DHT22;1512;51.486;6.610;2023-06-19T11:46:06;27.70;99.90
3005;DHT22;1512;51.486;6.610;2023-06-19T11:50:15;27.70;99.90
3005;DHT22;1512;51.486;6.610;2023-06-19T11:54:24;27.60;99.90
3005;DHT22;1512;51.486;6.610;2023-06-19T11:58:33;27.50;99.90
3005;DHT22;1512;51.486;6.610;2023-06-19T12:02:43;27.40;99.90
3005;DHT22;1512;51.486;6.610;2023-06-19T12:06:52;27.50;99.90
3005;DHT22;1512;51.486;6.610;2023-06-19T12:11:01;27.60;99.90
3005;DHT22;1512;51.486;6.610;2023-06-19T12:15:12;27.80;99.90
3005;DHT22;1512;51.486;6.610;2023-06-19T12:19:21;27.70;99.90
3005;DHT22;1512;51.486;6.610;2023-06-19T12:23:30;27.60;99.90
3005;DHT22;1512;51.486;6.610;2023-06-19T12:27:38;27.80;99.90
3005;DHT22;1512;51.486;6.610;2023-06-19T12:31:48;28.20;99.90
3005;DHT22;1512;51.486;6.610;2023-06-19T12:35:56;28.40;99.90
3005;DHT22;1512;51.486;6.610;2023-06-19T12:40:06;28.50;99.90
3005;DHT22;1512;51.486;6.610;2023-06-19T12:44:16;28.50;99.90
3005;DHT22;1512;51.486;6.610;2023-06-19T12:48:27;28.30;99.90
3005;DHT22;1512;51.486;6.610;2023-06-19T12:52:36;28.20;99.90
3005;DHT22;1512;51.486;6.610;2023-06-19T12:56:45;28.50;99.90
3005;DHT22;1512;51.486;6.610;2023-06-19T13:00:54;28.70;99.90
3005;DHT22;1512;51.486;6.610;2023-06-19T13:05:03;28.80;99.90
3005;DHT22;1512;51.486;6.610;2023-06-19T13:09:11;29.10;99.90
3005;DHT22;1512;51.486;6.610;2023-06-19T13:17:44;29.10;99.90
3005;DHT22;1512;51.486;6.610;2023-06-19T13:21:53;29.50;99.90
3005;DHT22;1512;51.486;6.610;2023-06-19T13:26:02;29.60;99.90
3005;DHT22;1512;51.486;6.610;2023-06-19T13:30:15;29.50;99.90
3005;DHT22;1512;51.486;6.610;2023-06-19T13:34:26;29.70;99.90
3005;DHT22;1512;51.486;6.610;2023-06-19T13:38:35;29.60;99.90
3005;DHT22;1512;51.486;6.610;2023-06-19T13:42:44;29.50;99.90
3005;DHT22;1512;51.486;6.610;2023-06-19T13:46:53;29.70;99.90
3005;DHT22;1512;51.486;6.610;2023-06-19T13:51:02;29.60;99.90
3005;DHT22;1512;51.486;6.610;2023-06-19T13:55:11;29.70;99.90
3005;DHT22;1512;51.486;6.610;2023-06-19T13:59:21;29.90;99.90
3005;DHT22;1512;51.486;6.610;2023-06-19T14:03:29;30.10;99.90
3005;DHT22;1512;51.486;6.610;2023-06-19T14:07:40;30.10;99.90
3005;DHT22;1512;51.486;6.610;2023-06-19T14:11:49;30.20;99.90
3005;DHT22;1512;51.486;6.610;2023-06-19T14:15:58;30.40;99.90
3005;DHT22;1512;51.486;6.610;2023-06-19T14:20:10;30.30;99.90
3005;DHT22;1512;51.486;6.610;2023-06-19T14:24:17;30.40;99.90
3005;DHT22;1512;51.486;6.610;2023-06-19T14:28:26;30.40;99.90
3005;DHT22;1512;51.486;6.610;2023-06-19T14:32:36;30.50;99.90
3005;DHT22;1512;51.486;6.610;2023-06-19T14:36:45;30.60;99.90
3005;DHT22;1512;51.486;6.610;2023-06-19T14:40:54;30.50;99.90
3005;DHT22;1512;51.486;6.610;2023-06-19T14:45:05;30.70;99.90
3005;DHT22;1512;51.486;6.610;2023-06-19T14:49:14;30.40;99.90
3005;DHT22;1512;51.486;6.610;2023-06-19T14:53:23;30.10;99.90
3005;DHT22;1512;51.486;6.610;2023-06-19T14:57:32;30.20;99.90
3005;DHT22;1512;51.486;6.610;2023-06-19T15:01:43;30.30;99.90
3005;DHT22;1512;51.486;6.610;2023-06-19T15:05:53;30.30;99.90
3005;DHT22;1512;51.486;6.610;2023-06-19T15:10:01;30.30;99.90
3005;DHT22;1512;51.486;6.610;2023-06-19T15:14:12;30.40;99.90
3005;DHT22;1512;51.486;6.610;2023-06-19T15:18:21;30.00;99.90
3005;DHT22;1512;51.486;6.610;2023-06-19T15:22:31;30.10;99.90
3005;DHT22;1512;51.486;6.610;2023-06-19T15:26:40;30.50;99.90
3005;DHT22;1512;51.486;6.610;2023-06-19T15:30:49;30.70;99.90
3005;DHT22;1512;51.486;6.610;2023-06-19T15:34:58;30.90;99.90
3005;DHT22;1512;51.486;6.610;2023-06-19T15:39:06;31.00;99.90
3005;DHT22;1512;51.486;6.610;2023-06-19T15:43:15;30.70;99.90
3005;DHT22;1512;51.486;6.610;2023-06-19T15:47:24;30.70;99.90
3005;DHT22;1512;51.486;6.610;2023-06-19T15:51:33;30.70;99.90
3005;DHT22;1512;51.486;6.610;2023-06-19T15:55:42;30.60;99.90
3005;DHT22;1512;51.486;6.610;2023-06-19T15:59:50;30.50;99.90
3005;DHT22;1512;51.486;6.610;2023-06-19T16:04:00;30.50;99.90
3005;DHT22;1512;51.486;6.610;2023-06-19T16:08:09;30.40;99.90
3005;DHT22;1512;51.486;6.610;2023-06-19T16:12:17;30.20;99.90
3005;DHT22;1512;51.486;6.610;2023-06-19T16:16:26;30.00;99.90
3005;DHT22;1512;51.486;6.610;2023-06-19T16:20:35;29.90;99.90
3005;DHT22;1512;51.486;6.610;2023-06-19T16:24:44;30.10;99.90
3005;DHT22;1512;51.486;6.610;2023-06-19T16:28:53;30.30;99.90
3005;DHT22;1512;51.486;6.610;2023-06-19T16:33:06;30.10;99.90
3005;DHT22;1512;51.486;6.610;2023-06-19T16:37:18;30.00;99.90
3005;DHT22;1512;51.486;6.610;2023-06-19T16:41:27;30.00;99.90
3005;DHT22;1512;51.486;6.610;2023-06-19T16:45:38;30.00;99.90
3005;DHT22;1512;51.486;6.610;2023-06-19T16:49:49;29.90;99.90
3005;DHT22;1512;51.486;6.610;2023-06-19T16:53:58;29.80;99.90
3005;DHT22;1512;51.486;6.610;2023-06-19T16:58:07;29.80;99.90
3005;DHT22;1512;51.486;6.610;2023-06-19T17:02:15;29.80;99.90
3005;DHT22;1512;51.486;6.610;2023-06-19T17:06:24;29.90;99.90
3005;DHT22;1512;51.486;6.610;2023-06-19T17:10:33;29.80;99.90
3005;DHT22;1512;51.486;6.610;2023-06-19T17:14:43;29.80;99.90
3005;DHT22;1512;51.486;6.610;2023-06-19T17:18:55;29.70;99.90
3005;DHT22;1512;51.486;6.610;2023-06-19T17:23:06;29.70;99.90
3005;DHT22;1512;51.486;6.610;2023-06-19T17:27:16;29.50;99.90
3005;DHT22;1512;51.486;6.610;2023-06-19T17:31:25;29.50;99.90
3005;DHT22;1512;51.486;6.610;2023-06-19T17:40:42;29.30;99.90
3005;DHT22;1512;51.486;6.610;2023-06-19T17:44:50;29.10;99.90
3005;DHT22;1512;51.486;6.610;2023-06-19T17:48:59;29.00;99.90
3005;DHT22;1512;51.486;6.610;2023-06-19T17:53:11;29.00;99.90
3005;DHT22;1512;51.486;6.610;2023-06-19T17:57:23;28.90;99.90
3005;DHT22;1512;51.486;6.610;2023-06-19T18:01:34;28.80;99.90
3005;DHT22;1512;51.486;6.610;2023-06-19T18:05:43;28.60;99.90
3005;DHT22;1512;51.486;6.610;2023-06-19T18:09:52;28.60;99.90
3005;DHT22;1512;51.486;6.610;2023-06-19T18:14:02;28.60;99.90
3005;DHT22;1512;51.486;6.610;2023-06-19T18:18:11;28.50;99.90
3005;DHT22;1512;51.486;6.610;2023-06-19T18:22:19;28.40;99.90
3005;DHT22;1512;51.486;6.610;2023-06-19T18:26:28;28.20;99.90
3005;DHT22;1512;51.486;6.610;2023-06-19T18:30:37;28.10;99.90
3005;DHT22;1512;51.486;6.610;2023-06-19T18:34:46;28.00;99.90
3005;DHT22;1512;51.486;6.610;2023-06-19T18:38:56;27.90;99.90
3005;DHT22;1512;51.486;6.610;2023-06-19T18:43:05;27.70;99.90
3005;DHT22;1512;51.486;6.610;2023-06-19T18:47:22;27.60;99.90
3005;DHT22;1512;51.486;6.610;2023-06-19T18:51:33;27.50;99.90
3005;DHT22;1512;51.486;6.610;2023-06-19T18:55:42;27.30;99.90
3005;DHT22;1512;51.486;6.610;2023-06-19T18:59:51;27.20;99.90
3005;DHT22;1512;51.486;6.610;2023-06-19T19:04:02;27.20;99.90
3005;DHT22;1512;51.486;6.610;2023-06-19T19:08:12;27.10;99.90
3005;DHT22;1512;51.486;6.610;2023-06-19T19:12:24;27.10;99.90
3005;DHT22;1512;51.486;6.610;2023-06-19T19:16:35;27.00;99.90
3005;DHT22;1512;51.486;6.610;2023-06-19T19:20:46;26.90;99.90
3005;DHT22;1512;51.486;6.610;2023-06-19T19:24:56;26.70;99.90
3005;DHT22;1512;51.486;6.610;2023-06-19T19:29:06;26.60;99.90
3005;DHT22;1512;51.486;6.610;2023-06-19T19:33:15;26.50;99.90
3005;DHT22;1512;51.486;6.610;2023-06-19T19:37:27;26.40;99.90
3005;DHT22;1512;51.486;6.610;2023-06-19T19:41:39;26.20;99.90
3005;DHT22;1512;51.486;6.610;2023-06-19T19:45:52;26.00;99.90
3005;DHT22;1512;51.486;6.610;2023-06-19T19:50:01;25.90;99.90
3005;DHT22;1512;51.486;6.610;2023-06-19T19:54:10;25.70;99.90
3005;DHT22;1512;51.486;6.610;2023-06-19T19:58:18;25.60;99.90
3005;DHT22;1512;51.486;6.610;2023-06-19T20:02:29;25.50;99.90
3005;DHT22;1512;51.486;6.610;2023-06-19T20:06:38;25.40;99.90
3005;DHT22;1512;51.486;6.610;2023-06-19T20:10:49;25.40;99.90
3005;DHT22;1512;51.486;6.610;2023-06-19T20:14:58;25.30;99.90
3005;DHT22;1512;51.486;6.610;2023-06-19T20:19:09;25.20;99.90
3005;DHT22;1512;51.486;6.610;2023-06-19T20:23:17;25.10;99.90
3005;DHT22;1512;51.486;6.610;2023-06-19T20:27:26;25.10;99.90
3005;DHT22;1512;51.486;6.610;2023-06-19T20:31:35;25.00;99.90
3005;DHT22;1512;51.486;6.610;2023-06-19T20:35:44;24.90;99.90
3005;DHT22;1512;51.486;6.610;2023-06-19T20:39:54;24.80;99.90
3005;DHT22;1512;51.486;6.610;2023-06-19T20:44:04;24.60;99.90
3005;DHT22;1512;51.486;6.610;2023-06-19T20:48:12;24.60;99.90
3005;DHT22;1512;51.486;6.610;2023-06-19T20:52:21;24.50;99.90
3005;DHT22;1512;51.486;6.610;2023-06-19T20:56:30;24.50;99.90
3005;DHT22;1512;51.486;6.610;2023-06-19T21:00:39;24.50;99.90
3005;DHT22;1512;51.486;6.610;2023-06-19T21:04:48;24.50;99.90
3005;DHT22;1512;51.486;6.610;2023-06-19T21:08:59;24.40;99.90
3005;DHT22;1512;51.486;6.610;2023-06-19T21:13:10;24.40;99.90
3005;DHT22;1512;51.486;6.610;2023-06-19T21:17:20;24.40;99.90
3005;DHT22;1512;51.486;6.610;2023-06-19T21:21:29;24.40;99.90
3005;DHT22;1512;51.486;6.610;2023-06-19T21:25:38;24.40;99.90
3005;DHT22;1512;51.486;6.610;2023-06-19T21:29:47;24.30;99.90
3005;DHT22;1512;51.486;6.610;2023-06-19T21:33:56;24.20;99.90
3005;DHT22;1512;51.486;6.610;2023-06-19T21:38:05;24.10;99.90
3005;DHT22;1512;51.486;6.610;2023-06-19T21:42:13;24.20;99.90
3005;DHT22;1512;51.486;6.610;2023-06-19T21:46:22;24.20;99.90
3005;DHT22;1512;51.486;6.610;2023-06-19T21:50:31;24.20;99.90
3005;DHT22;1512;51.486;6.610;2023-06-19T21:54:39;24.10;99.90
3005;DHT22;1512;51.486;6.610;2023-06-19T21:58:48;24.10;99.90
3005;DHT22;1512;51.486;6.610;2023-06-19T22:02:57;24.10;99.90
3005;DHT22;1512;51.486;6.610;2023-06-19T22:07:06;24.00;99.90
3005;DHT22;1512;51.486;6.610;2023-06-19T22:11:15;24.10;99.90
3005;DHT22;1512;51.486;6.610;2023-06-19T22:15:24;24.10;99.90
3005;DHT22;1512;51.486;6.610;2023-06-19T22:19:33;24.10;99.90
3005;DHT22;1512;51.486;6.610;2023-06-19T22:23:41;24.00;99.90
3005;DHT22;1512;51.486;6.610;2023-06-19T22:27:50;24.00;99.90
3005;DHT22;1512;51.486;6.610;2023-06-19T22:32:01;24.00;99.90
3005;DHT22;1512;51.486;6.610;2023-06-19T22:36:09;24.00;99.90
3005;DHT22;1512;51.486;6.610;2023-06-19T22:40:18;24.00;99.90
3005;DHT22;1512;51.486;6.610;2023-06-19T22:44:27;23.90;99.90
3005;DHT22;1512;51.486;6.610;2023-06-19T22:48:35;23.90;99.90
3005;DHT22;1512;51.486;6.610;2023-06-19T22:52:44;23.90;99.90
3005;DHT22;1512;51.486;6.610;2023-06-19T22:56:53;23.80;99.90
3005;DHT22;1512;51.486;6.610;2023-06-19T23:01:02;23.80;99.90
3005;DHT22;1512;51.486;6.610;2023-06-19T23:05:11;23.70;99.90
3005;DHT22;1512;51.486;6.610;2023-06-19T23:09:20;23.70;99.90
3005;DHT22;1512;51.486;6.610;2023-06-19T23:13:30;23.60;99.90
3005;DHT22;1512;51.486;6.610;2023-06-19T23:17:38;23.60;99.90
3005;DHT22;1512;51.486;6.610;2023-06-19T23:21:47;23.50;99.90
3005;DHT22;1512;51.486;6.610;2023-06-19T23:25:57;23.50;99.90
3005;DHT22;1512;51.486;6.610;2023-06-19T23:30:08;23.40;99.90
3005;DHT22;1512;51.486;6.610;2023-06-19T23:34:17;23.40;99.90
3005;DHT22;1512;51.486;6.610;2023-06-19T23:38:25;23.40;99.90
3005;DHT22;1512;51.486;6.610;2023-06-19T23:42:34;23.40;99.90
3005;DHT22;1512;51.486;6.610;2023-06-19T23:46:43;23.40;99.90
3005;DHT22;1512;51.486;6.610;2023-06-19T23:50:53;23.40;99.90
3005;DHT22;1512;51.486;6.610;2023-06-19T23:55:01;23.30;99.90
3005;DHT22;1512;51.486;6.610;2023-06-19T23:59:11;23.30;99.90
